createdAt,value
2022-09-16T00:03:32.348Z,1012
2022-09-16T00:08:50.810Z,1007
2022-09-16T00:14:09.313Z,1003
2022-09-16T00:19:27.785Z,999
2022-09-16T00:24:46.283Z,1003
2022-09-16T00:30:04.525Z,1011
2022-09-16T00:35:22.721Z,1004
2022-09-16T00:40:41.497Z,1002
2022-09-16T00:45:59.994Z,1007
2022-09-16T00:51:18.188Z,1002
2022-09-16T00:56:36.701Z,986
2022-09-16T01:01:55.030Z,980
2022-09-16T01:07:13.232Z,965
2022-09-16T01:12:31.998Z,991
2022-09-16T01:17:50.515Z,984
2022-09-16T01:23:09.001Z,1042
2022-09-16T01:28:27.187Z,1029
2022-09-16T01:33:45.418Z,1048
2022-09-16T01:39:03.329Z,1121
2022-09-16T01:44:21.515Z,1114
2022-09-16T01:49:40.311Z,1099
2022-09-16T01:54:58.524Z,1007
2022-09-16T02:00:16.680Z,955
2022-09-16T02:05:35.191Z,949
2022-09-16T02:10:53.379Z,937
2022-09-16T02:16:11.650Z,941
2022-09-16T02:21:30.524Z,914
2022-09-16T02:26:48.725Z,955
2022-09-16T02:32:07.186Z,971
2022-09-16T02:37:25.723Z,974
2022-09-16T02:42:44.176Z,935
2022-09-16T02:48:02.693Z,929
2022-09-16T02:53:21.177Z,926
2022-09-16T02:58:39.912Z,931
2022-09-16T03:03:58.664Z,935
2022-09-16T03:09:17.451Z,924
2022-09-16T03:14:35.632Z,919
2022-09-16T03:19:54.108Z,906
2022-09-16T03:25:12.623Z,919
2022-09-16T03:30:30.811Z,1019
2022-09-16T03:35:49.012Z,926
2022-09-16T03:41:07.510Z,896
2022-09-16T03:46:26.056Z,900
2022-09-16T03:51:44.297Z,887
2022-09-16T03:57:02.548Z,875
2022-09-16T04:02:20.764Z,867
2022-09-16T04:07:38.827Z,869
2022-09-16T04:12:57.615Z,880
2022-09-16T04:18:16.360Z,880
2022-09-16T04:23:34.548Z,884
2022-09-16T04:28:53.157Z,886
2022-09-16T04:34:11.326Z,912
2022-09-16T04:39:29.529Z,908
2022-09-16T04:44:47.477Z,901
2022-09-16T04:50:05.690Z,900
2022-09-16T04:55:24.424Z,883
2022-09-16T05:00:42.951Z,801
2022-09-16T05:06:01.122Z,751
2022-09-16T05:11:19.586Z,778
2022-09-16T05:16:38.466Z,773
2022-09-16T05:21:56.996Z,746
2022-09-16T05:27:15.416Z,725
2022-09-16T05:32:34.292Z,709
2022-09-16T05:37:52.598Z,677
2022-09-16T05:43:11.097Z,607
2022-09-16T05:48:29.958Z,592
2022-09-16T05:53:48.143Z,599
2022-09-16T05:59:06.622Z,635
2022-09-16T06:04:24.924Z,619
2022-09-16T06:09:43.862Z,607
2022-09-16T06:15:02.353Z,621
2022-09-16T06:20:20.961Z,625
2022-09-16T06:25:39.685Z,636
2022-09-16T06:30:58.206Z,627
2022-09-16T06:36:16.877Z,617
2022-09-16T06:41:35.256Z,619
2022-09-16T06:46:53.737Z,621
2022-09-16T06:52:12.036Z,612
2022-09-16T06:57:30.453Z,606
2022-09-16T07:02:49.272Z,591
2022-09-16T07:08:07.587Z,576
2022-09-16T07:13:26.053Z,561
2022-09-16T07:18:44.598Z,551
2022-09-16T07:24:03.047Z,548
2022-09-16T07:29:21.569Z,552
2022-09-16T07:34:39.485Z,548
2022-09-16T07:39:58.437Z,531
2022-09-16T07:45:17.349Z,530
2022-09-16T07:50:36.123Z,521
2022-09-16T07:55:54.700Z,503
2022-09-16T08:01:13.530Z,511
2022-09-16T08:06:32.542Z,499
2022-09-16T08:11:51.395Z,493
2022-09-16T08:17:09.622Z,491
2022-09-16T08:22:28.375Z,490
2022-09-16T08:27:46.963Z,470
2022-09-16T08:33:05.305Z,449
2022-09-16T08:38:24.055Z,462
2022-09-16T08:43:42.640Z,473
2022-09-16T08:49:01.163Z,481
2022-09-16T08:54:19.427Z,498
2022-09-16T08:59:38.063Z,514
2022-09-16T09:04:56.458Z,531
2022-09-16T09:10:14.634Z,545
2022-09-16T09:15:33.281Z,531
2022-09-16T09:20:51.690Z,534
2022-09-16T09:26:10.122Z,508
2022-09-16T09:31:28.727Z,472
2022-09-16T09:36:47.109Z,458
2022-09-16T09:42:05.802Z,472
2022-09-16T09:47:24.659Z,516
2022-09-16T09:52:42.945Z,506
2022-09-16T09:58:01.670Z,481
2022-09-16T10:03:20.516Z,463
2022-09-16T10:08:38.532Z,456
2022-09-16T10:13:57.060Z,447
2022-09-16T10:19:15.918Z,426
2022-09-16T10:24:34.232Z,422
2022-09-16T10:29:52.933Z,420
2022-09-16T10:35:11.254Z,416
2022-09-16T10:40:29.320Z,402
2022-09-16T10:45:47.740Z,398
2022-09-16T10:51:06.189Z,401
2022-09-16T10:56:24.214Z,402
2022-09-16T11:01:45.006Z,403
2022-09-16T11:07:06.796Z,407
2022-09-16T11:12:25.572Z,415
2022-09-16T11:17:44.252Z,418
2022-09-16T11:23:02.543Z,424
2022-09-16T11:28:20.580Z,432
2022-09-16T11:33:39.009Z,434
2022-09-16T11:38:57.714Z,437
2022-09-16T11:44:16.659Z,440
2022-09-16T11:49:34.832Z,440
2022-09-16T11:54:53.709Z,445
2022-09-16T12:00:12.280Z,460
2022-09-16T12:05:30.727Z,461
2022-09-16T12:10:49.312Z,504
2022-09-16T12:16:07.888Z,500
2022-09-16T12:21:26.615Z,486
2022-09-16T12:26:45.466Z,478
2022-09-16T12:32:03.509Z,470
2022-09-16T12:37:21.922Z,463
2022-09-16T12:42:43.114Z,456
2022-09-16T12:48:04.540Z,459
2022-09-16T12:53:22.454Z,459
2022-09-16T12:58:41.036Z,460
2022-09-16T13:03:59.347Z,462
2022-09-16T13:09:17.962Z,472
2022-09-16T13:14:36.794Z,465
2022-09-16T13:19:54.828Z,446
2022-09-16T13:25:13.545Z,465
2022-09-16T13:30:32.410Z,443
2022-09-16T13:35:50.771Z,442
2022-09-16T13:41:09.207Z,446
2022-09-16T13:46:28.113Z,451
2022-09-16T13:51:46.583Z,465
2022-09-16T13:57:06.993Z,473
2022-09-16T14:02:30.731Z,482
2022-09-16T14:07:49.771Z,487
2022-09-16T14:13:08.221Z,487
2022-09-16T14:18:26.773Z,503
2022-09-16T14:23:45.331Z,510
2022-09-16T14:29:04.040Z,493
2022-09-16T14:34:22.888Z,485
2022-09-16T14:39:41.264Z,480
2022-09-16T14:44:59.690Z,492
2022-09-16T14:50:18.285Z,501
2022-09-16T14:55:36.576Z,502
2022-09-16T15:00:55.019Z,497
2022-09-16T15:06:13.890Z,514
2022-09-16T15:11:48.571Z,517
2022-09-16T15:17:07.332Z,522
2022-09-16T15:22:26.173Z,524
2022-09-16T15:27:44.989Z,514
2022-09-16T15:33:03.233Z,474
2022-09-16T15:38:21.863Z,486
2022-09-16T15:43:39.973Z,505
2022-09-16T15:48:58.546Z,511
2022-09-16T15:54:17.188Z,518
2022-09-16T15:59:35.533Z,525
2022-09-16T16:04:54.069Z,514
2022-09-16T16:10:12.483Z,506
2022-09-16T16:15:30.867Z,475
2022-09-16T16:20:49.375Z,463
2022-09-16T16:26:08.201Z,484
2022-09-16T16:31:26.478Z,502
2022-09-16T16:36:45.290Z,497
2022-09-16T16:42:03.851Z,474
2022-09-16T16:47:22.391Z,465
2022-09-16T16:52:41.113Z,458
2022-09-16T16:57:59.406Z,465
2022-09-16T17:03:17.708Z,468
2022-09-16T17:08:36.218Z,473
2022-09-16T17:13:54.775Z,464
2022-09-16T17:19:13.548Z,436
2022-09-16T17:24:32.054Z,426
2022-09-16T17:29:50.921Z,431
2022-09-16T17:35:09.221Z,446
2022-09-16T17:40:28.072Z,434
2022-09-16T17:45:46.864Z,440
2022-09-16T17:51:05.313Z,433
2022-09-16T17:56:23.507Z,442
2022-09-16T18:01:42.038Z,440
2022-09-16T18:07:00.333Z,480
2022-09-16T18:12:19.136Z,517
2022-09-16T18:17:37.736Z,530
2022-09-16T18:22:56.319Z,495
2022-09-16T18:28:15.078Z,482
2022-09-16T18:33:33.873Z,493
2022-09-16T18:38:52.225Z,504
2022-09-16T18:44:10.414Z,503
2022-09-16T18:49:28.667Z,490
2022-09-16T18:54:47.301Z,487
2022-09-16T19:00:05.750Z,494
2022-09-16T19:05:24.343Z,496
2022-09-16T19:10:42.904Z,498
2022-09-16T19:16:01.355Z,513
2022-09-16T19:21:19.671Z,528
2022-09-16T19:26:38.234Z,515
2022-09-16T19:31:56.521Z,519
2022-09-16T19:37:14.847Z,542
2022-09-16T19:42:33.146Z,533
2022-09-16T19:47:51.632Z,514
2022-09-16T19:53:10.150Z,493
2022-09-16T19:58:28.434Z,486
2022-09-16T20:03:46.910Z,487
2022-09-16T20:09:05.455Z,478
2022-09-16T20:14:23.447Z,475
2022-09-16T20:19:41.913Z,528
2022-09-16T20:25:18.993Z,581
2022-09-16T20:30:42.055Z,606
2022-09-16T20:36:00.526Z,664
2022-09-16T20:41:19.171Z,715
2022-09-16T20:46:37.468Z,766
2022-09-16T20:51:56.176Z,770
2022-09-16T20:57:14.747Z,714
2022-09-16T21:02:32.801Z,733
2022-09-16T21:07:51.092Z,768
2022-09-16T21:13:09.667Z,784
2022-09-16T21:18:27.665Z,805
2022-09-16T21:23:45.858Z,759
2022-09-16T21:29:04.691Z,722
2022-09-16T21:34:22.695Z,701
2022-09-16T21:39:40.856Z,760
2022-09-16T21:44:59.706Z,780
2022-09-16T21:50:17.711Z,786
2022-09-16T21:55:35.864Z,790
2022-09-16T22:00:54.797Z,795
2022-09-16T22:06:13.276Z,802
2022-09-16T22:11:31.432Z,791
2022-09-16T22:16:49.995Z,944
2022-09-16T22:22:08.869Z,936
2022-09-16T22:27:27.561Z,897
2022-09-16T22:32:46.129Z,874
2022-09-16T22:38:04.154Z,853
2022-09-16T22:43:22.858Z,798
2022-09-16T22:48:41.417Z,787
2022-09-16T22:54:00.275Z,791
2022-09-16T22:59:18.426Z,782
2022-09-16T23:04:36.974Z,787
2022-09-16T23:09:55.158Z,780
2022-09-16T23:15:13.856Z,806
2022-09-16T23:20:31.866Z,878
2022-09-16T23:25:49.866Z,859
2022-09-16T23:31:08.394Z,851
2022-09-16T23:36:27.336Z,837
2022-09-16T23:41:45.623Z,865
2022-09-16T23:47:04.335Z,876
2022-09-16T23:52:22.362Z,858
2022-09-16T23:57:40.935Z,829
